sensor_id;sensor_type;location;lat;lon;timestamp;P1;durP1;ratioP1;P2;durP2;ratioP2
37151;SDS011;23046;50.112;8.952;2024-03-22T00:00:02;5.43;;;4.37;;
37151;SDS011;23046;50.112;8.952;2024-03-22T00:00:22;4.55;;;4.07;;
37151;SDS011;23046;50.112;8.952;2024-03-22T00:00:32;4.90;;;4.17;;
37151;SDS011;23046;50.112;8.952;2024-03-22T00:00:42;4.90;;;4.13;;
37151;SDS011;23046;50.112;8.952;2024-03-22T00:00:52;5.28;;;4.30;;
37151;SDS011;23046;50.112;8.952;2024-03-22T00:01:03;5.07;;;4.40;;
37151;SDS011;23046;50.112;8.952;2024-03-22T00:01:13;5.90;;;4.73;;
37151;SDS011;23046;50.112;8.952;2024-03-22T00:01:23;5.70;;;4.57;;
37151;SDS011;23046;50.112;8.952;2024-03-22T00:01:33;6.70;;;4.70;;
37151;SDS011;23046;50.112;8.952;2024-03-22T00:01:46;6.30;;;4.43;;
37151;SDS011;23046;50.112;8.952;2024-03-22T00:01:57;5.32;;;4.50;;
37151;SDS011;23046;50.112;8.952;2024-03-22T00:02:07;5.63;;;4.40;;
37151;SDS011;23046;50.112;8.952;2024-03-22T00:02:19;5.75;;;4.32;;
37151;SDS011;23046;50.112;8.952;2024-03-22T00:02:29;5.73;;;4.40;;
37151;SDS011;23046;50.112;8.952;2024-03-22T00:02:39;5.10;;;4.30;;
37151;SDS011;23046;50.112;8.952;2024-03-22T00:02:49;5.70;;;4.60;;
37151;SDS011;23046;50.112;8.952;2024-03-22T00:02:59;6.10;;;4.70;;
37151;SDS011;23046;50.112;8.952;2024-03-22T00:03:10;6.40;;;4.90;;
37151;SDS011;23046;50.112;8.952;2024-03-22T00:03:20;5.33;;;4.50;;
37151;SDS011;23046;50.112;8.952;2024-03-22T00:03:30;5.00;;;4.30;;
37151;SDS011;23046;50.112;8.952;2024-03-22T00:03:41;5.13;;;4.35;;
37151;SDS011;23046;50.112;8.952;2024-03-22T00:03:51;5.57;;;4.43;;
37151;SDS011;23046;50.112;8.952;2024-03-22T00:04:01;5.43;;;4.43;;
37151;SDS011;23046;50.112;8.952;2024-03-22T00:04:12;6.57;;;4.30;;
37151;SDS011;23046;50.112;8.952;2024-03-22T00:04:22;7.40;;;4.40;;
37151;SDS011;23046;50.112;8.952;2024-03-22T00:04:32;7.77;;;4.60;;
37151;SDS011;23046;50.112;8.952;2024-03-22T00:04:42;6.87;;;4.70;;
37151;SDS011;23046;50.112;8.952;2024-03-22T00:04:53;7.10;;;4.77;;
37151;SDS011;23046;50.112;8.952;2024-03-22T00:05:03;6.88;;;4.70;;
37151;SDS011;23046;50.112;8.952;2024-03-22T00:05:13;6.57;;;4.70;;
37151;SDS011;23046;50.112;8.952;2024-03-22T00:05:23;5.90;;;4.57;;
37151;SDS011;23046;50.112;8.952;2024-03-22T00:05:34;6.17;;;4.50;;
37151;SDS011;23046;50.112;8.952;2024-03-22T00:05:44;6.05;;;4.30;;
37151;SDS011;23046;50.112;8.952;2024-03-22T00:05:54;6.20;;;4.50;;
37151;SDS011;23046;50.112;8.952;2024-03-22T00:06:04;5.63;;;4.43;;
37151;SDS011;23046;50.112;8.952;2024-03-22T00:06:14;5.33;;;4.40;;
37151;SDS011;23046;50.112;8.952;2024-03-22T00:06:25;5.03;;;4.27;;
37151;SDS011;23046;50.112;8.952;2024-03-22T00:06:35;5.07;;;4.35;;
37151;SDS011;23046;50.112;8.952;2024-03-22T00:06:47;5.23;;;4.33;;
37151;SDS011;23046;50.112;8.952;2024-03-22T00:06:57;5.35;;;4.35;;
37151;SDS011;23046;50.112;8.952;2024-03-22T00:07:07;5.33;;;4.40;;
37151;SDS011;23046;50.112;8.952;2024-03-22T00:07:18;4.97;;;4.40;;
37151;SDS011;23046;50.112;8.952;2024-03-22T00:07:28;5.37;;;4.43;;
37151;SDS011;23046;50.112;8.952;2024-03-22T00:07:38;5.63;;;4.57;;
37151;SDS011;23046;50.112;8.952;2024-03-22T00:07:48;6.10;;;4.60;;
37151;SDS011;23046;50.112;8.952;2024-03-22T00:07:58;6.73;;;4.70;;
37151;SDS011;23046;50.112;8.952;2024-03-22T00:08:09;7.30;;;4.70;;
37151;SDS011;23046;50.112;8.952;2024-03-22T00:08:19;7.82;;;4.95;;
37151;SDS011;23046;50.112;8.952;2024-03-22T00:08:29;7.23;;;4.90;;
37151;SDS011;23046;50.112;8.952;2024-03-22T00:08:39;7.03;;;4.87;;
37151;SDS011;23046;50.112;8.952;2024-03-22T00:08:50;6.07;;;4.70;;
37151;SDS011;23046;50.112;8.952;2024-03-22T00:09:00;6.00;;;4.70;;
37151;SDS011;23046;50.112;8.952;2024-03-22T00:09:10;5.38;;;4.55;;
37151;SDS011;23046;50.112;8.952;2024-03-22T00:09:20;5.87;;;4.40;;
37151;SDS011;23046;50.112;8.952;2024-03-22T00:09:31;5.70;;;4.33;;
37151;SDS011;23046;50.112;8.952;2024-03-22T00:09:41;6.23;;;4.40;;
37151;SDS011;23046;50.112;8.952;2024-03-22T00:09:51;6.00;;;4.43;;
37151;SDS011;23046;50.112;8.952;2024-03-22T00:10:01;5.67;;;4.43;;
37151;SDS011;23046;50.112;8.952;2024-03-22T00:10:12;5.37;;;4.37;;
37151;SDS011;23046;50.112;8.952;2024-03-22T00:10:23;5.03;;;4.28;;
37151;SDS011;23046;50.112;8.952;2024-03-22T00:10:33;5.07;;;4.33;;
37151;SDS011;23046;50.112;8.952;2024-03-22T00:10:43;5.07;;;4.22;;
37151;SDS011;23046;50.112;8.952;2024-03-22T00:10:53;5.93;;;4.33;;
37151;SDS011;23046;50.112;8.952;2024-03-22T00:11:03;6.07;;;4.30;;
37151;SDS011;23046;50.112;8.952;2024-03-22T00:11:14;6.53;;;4.47;;
37151;SDS011;23046;50.112;8.952;2024-03-22T00:11:24;6.23;;;4.30;;
37151;SDS011;23046;50.112;8.952;2024-03-22T00:11:35;5.38;;;4.00;;
37151;SDS011;23046;50.112;8.952;2024-03-22T00:11:45;4.70;;;3.83;;
37151;SDS011;23046;50.112;8.952;2024-03-22T00:11:55;4.57;;;3.92;;
37151;SDS011;23046;50.112;8.952;2024-03-22T00:12:05;6.50;;;4.30;;
37151;SDS011;23046;50.112;8.952;2024-03-22T00:12:16;7.13;;;4.47;;
37151;SDS011;23046;50.112;8.952;2024-03-22T00:12:26;6.93;;;4.40;;
37151;SDS011;23046;50.112;8.952;2024-03-22T00:12:36;5.15;;;4.10;;
37151;SDS011;23046;50.112;8.952;2024-03-22T00:12:46;4.90;;;4.20;;
37151;SDS011;23046;50.112;8.952;2024-03-22T00:12:56;5.03;;;4.30;;
37151;SDS011;23046;50.112;8.952;2024-03-22T00:13:07;5.47;;;4.43;;
37151;SDS011;23046;50.112;8.952;2024-03-22T00:13:17;5.10;;;4.50;;
37151;SDS011;23046;50.112;8.952;2024-03-22T00:13:27;5.40;;;4.60;;
37151;SDS011;23046;50.112;8.952;2024-03-22T00:13:38;5.13;;;4.43;;
37151;SDS011;23046;50.112;8.952;2024-03-22T00:13:48;5.47;;;4.37;;
37151;SDS011;23046;50.112;8.952;2024-03-22T00:13:58;5.53;;;4.33;;
37151;SDS011;23046;50.112;8.952;2024-03-22T00:14:09;5.82;;;4.53;;
37151;SDS011;23046;50.112;8.952;2024-03-22T00:14:19;6.15;;;4.57;;
37151;SDS011;23046;50.112;8.952;2024-03-22T00:14:30;6.23;;;4.70;;
37151;SDS011;23046;50.112;8.952;2024-03-22T00:14:40;6.03;;;4.60;;
37151;SDS011;23046;50.112;8.952;2024-03-22T00:14:50;6.03;;;4.60;;
37151;SDS011;23046;50.112;8.952;2024-03-22T00:15:02;5.80;;;4.32;;
37151;SDS011;23046;50.112;8.952;2024-03-22T00:15:13;5.43;;;4.20;;
37151;SDS011;23046;50.112;8.952;2024-03-22T00:15:23;5.57;;;4.13;;
37151;SDS011;23046;50.112;8.952;2024-03-22T00:15:33;5.63;;;4.33;;
37151;SDS011;23046;50.112;8.952;2024-03-22T00:15:43;6.07;;;4.47;;
37151;SDS011;23046;50.112;8.952;2024-03-22T00:15:54;6.22;;;4.80;;
37151;SDS011;23046;50.112;8.952;2024-03-22T00:16:04;6.10;;;4.85;;
37151;SDS011;23046;50.112;8.952;2024-03-22T00:16:15;6.00;;;4.70;;
37151;SDS011;23046;50.112;8.952;2024-03-22T00:16:25;5.80;;;4.53;;
37151;SDS011;23046;50.112;8.952;2024-03-22T00:16:35;6.20;;;4.57;;
37151;SDS011;23046;50.112;8.952;2024-03-22T00:16:45;5.73;;;4.50;;
37151;SDS011;23046;50.112;8.952;2024-03-22T00:16:55;5.50;;;4.45;;
37151;SDS011;23046;50.112;8.952;2024-03-22T00:17:06;6.13;;;4.40;;
37151;SDS011;23046;50.112;8.952;2024-03-22T00:17:16;7.10;;;4.63;;
37151;SDS011;23046;50.112;8.952;2024-03-22T00:17:26;7.73;;;4.70;;
37151;SDS011;23046;50.112;8.952;2024-03-22T00:17:36;7.27;;;4.50;;
37151;SDS011;23046;50.112;8.952;2024-03-22T00:17:46;6.70;;;4.45;;
37151;SDS011;23046;50.112;8.952;2024-03-22T00:17:57;6.03;;;4.40;;
37151;SDS011;23046;50.112;8.952;2024-03-22T00:18:07;5.73;;;4.50;;
37151;SDS011;23046;50.112;8.952;2024-03-22T00:18:17;6.70;;;4.60;;
37151;SDS011;23046;50.112;8.952;2024-03-22T00:18:27;7.07;;;4.60;;
37151;SDS011;23046;50.112;8.952;2024-03-22T00:18:37;7.50;;;4.57;;
37151;SDS011;23046;50.112;8.952;2024-03-22T00:18:48;6.53;;;4.38;;
37151;SDS011;23046;50.112;8.952;2024-03-22T00:18:58;6.40;;;4.33;;
37151;SDS011;23046;50.112;8.952;2024-03-22T00:19:08;6.73;;;4.27;;
37151;SDS011;23046;50.112;8.952;2024-03-22T00:19:18;6.20;;;4.20;;
37151;SDS011;23046;50.112;8.952;2024-03-22T00:19:28;5.77;;;4.27;;
37151;SDS011;23046;50.112;8.952;2024-03-22T00:19:39;5.35;;;4.60;;
37151;SDS011;23046;50.112;8.952;2024-03-22T00:19:49;6.23;;;4.53;;
37151;SDS011;23046;50.112;8.952;2024-03-22T00:20:00;6.67;;;4.33;;
37151;SDS011;23046;50.112;8.952;2024-03-22T00:20:10;6.13;;;4.07;;
37151;SDS011;23046;50.112;8.952;2024-03-22T00:20:20;5.13;;;4.20;;
37151;SDS011;23046;50.112;8.952;2024-03-22T00:20:31;5.30;;;4.33;;
37151;SDS011;23046;50.112;8.952;2024-03-22T00:20:41;5.85;;;4.57;;
37151;SDS011;23046;50.112;8.952;2024-03-22T00:20:51;6.07;;;4.57;;
37151;SDS011;23046;50.112;8.952;2024-03-22T00:21:01;6.20;;;4.60;;
37151;SDS011;23046;50.112;8.952;2024-03-22T00:21:12;6.43;;;4.70;;
37151;SDS011;23046;50.112;8.952;2024-03-22T00:21:22;6.03;;;4.70;;
37151;SDS011;23046;50.112;8.952;2024-03-22T00:21:33;5.55;;;4.50;;
37151;SDS011;23046;50.112;8.952;2024-03-22T00:21:43;5.07;;;4.17;;
37151;SDS011;23046;50.112;8.952;2024-03-22T00:21:53;5.30;;;4.33;;
37151;SDS011;23046;50.112;8.952;2024-03-22T00:22:03;5.40;;;4.47;;
37151;SDS011;23046;50.112;8.952;2024-03-22T00:22:14;5.03;;;4.37;;
37151;SDS011;23046;50.112;8.952;2024-03-22T00:22:25;4.95;;;4.18;;
37151;SDS011;23046;50.112;8.952;2024-03-22T00:22:35;5.10;;;4.17;;
37151;SDS011;23046;50.112;8.952;2024-03-22T00:22:45;5.77;;;4.37;;
37151;SDS011;23046;50.112;8.952;2024-03-22T00:22:56;5.80;;;4.40;;
37151;SDS011;23046;50.112;8.952;2024-03-22T00:23:06;5.63;;;4.40;;
37151;SDS011;23046;50.112;8.952;2024-03-22T00:23:16;6.13;;;4.43;;
37151;SDS011;23046;50.112;8.952;2024-03-22T00:23:26;6.10;;;4.40;;
37151;SDS011;23046;50.112;8.952;2024-03-22T00:23:36;6.50;;;4.63;;
37151;SDS011;23046;50.112;8.952;2024-03-22T00:23:46;6.07;;;4.53;;
37151;SDS011;23046;50.112;8.952;2024-03-22T00:23:57;5.97;;;4.47;;
37151;SDS011;23046;50.112;8.952;2024-03-22T00:24:07;5.95;;;4.40;;
37151;SDS011;23046;50.112;8.952;2024-03-22T00:24:17;5.90;;;4.43;;
37151;SDS011;23046;50.112;8.952;2024-03-22T00:24:27;6.10;;;4.40;;
37151;SDS011;23046;50.112;8.952;2024-03-22T00:24:38;6.10;;;4.30;;
37151;SDS011;23046;50.112;8.952;2024-03-22T00:24:48;5.72;;;4.25;;
37151;SDS011;23046;50.112;8.952;2024-03-22T00:24:58;5.47;;;4.23;;
37151;SDS011;23046;50.112;8.952;2024-03-22T00:25:08;5.83;;;4.27;;
37151;SDS011;23046;50.112;8.952;2024-03-22T00:25:18;6.20;;;4.50;;
37151;SDS011;23046;50.112;8.952;2024-03-22T00:25:29;5.80;;;4.40;;
37151;SDS011;23046;50.112;8.952;2024-03-22T00:25:40;4.82;;;4.22;;
37151;SDS011;23046;50.112;8.952;2024-03-22T00:25:50;4.63;;;4.07;;
37151;SDS011;23046;50.112;8.952;2024-03-22T00:26:00;5.25;;;4.28;;
37151;SDS011;23046;50.112;8.952;2024-03-22T00:26:10;6.37;;;4.70;;
37151;SDS011;23046;50.112;8.952;2024-03-22T00:26:21;6.00;;;4.67;;
37151;SDS011;23046;50.112;8.952;2024-03-22T00:26:31;5.75;;;4.60;;
37151;SDS011;23046;50.112;8.952;2024-03-22T00:26:41;5.33;;;4.30;;
37151;SDS011;23046;50.112;8.952;2024-03-22T00:26:59;6.03;;;4.40;;
37151;SDS011;23046;50.112;8.952;2024-03-22T00:27:09;6.10;;;4.70;;
37151;SDS011;23046;50.112;8.952;2024-03-22T00:27:21;6.03;;;4.80;;
37151;SDS011;23046;50.112;8.952;2024-03-22T00:27:31;5.93;;;4.77;;
37151;SDS011;23046;50.112;8.952;2024-03-22T00:27:42;5.20;;;4.50;;
37151;SDS011;23046;50.112;8.952;2024-03-22T00:27:52;5.00;;;4.38;;
37151;SDS011;23046;50.112;8.952;2024-03-22T00:28:02;5.20;;;4.30;;
37151;SDS011;23046;50.112;8.952;2024-03-22T00:28:13;5.67;;;4.47;;
37151;SDS011;23046;50.112;8.952;2024-03-22T00:28:23;5.37;;;4.50;;
37151;SDS011;23046;50.112;8.952;2024-03-22T00:28:33;7.32;;;4.57;;
37151;SDS011;23046;50.112;8.952;2024-03-22T00:28:43;7.33;;;4.50;;
37151;SDS011;23046;50.112;8.952;2024-03-22T00:28:53;7.50;;;4.40;;
37151;SDS011;23046;50.112;8.952;2024-03-22T00:29:04;5.30;;;4.40;;
37151;SDS011;23046;50.112;8.952;2024-03-22T00:29:14;5.37;;;4.50;;
37151;SDS011;23046;50.112;8.952;2024-03-22T00:29:24;5.82;;;4.63;;
37151;SDS011;23046;50.112;8.952;2024-03-22T00:29:36;6.30;;;4.70;;
37151;SDS011;23046;50.112;8.952;2024-03-22T00:29:46;6.20;;;4.63;;
37151;SDS011;23046;50.112;8.952;2024-03-22T00:29:56;6.18;;;4.72;;
37151;SDS011;23046;50.112;8.952;2024-03-22T00:30:06;5.97;;;4.80;;
37151;SDS011;23046;50.112;8.952;2024-03-22T00:30:17;6.20;;;4.87;;
37151;SDS011;23046;50.112;8.952;2024-03-22T00:30:27;6.00;;;4.70;;
37151;SDS011;23046;50.112;8.952;2024-03-22T00:30:38;6.38;;;4.72;;
37151;SDS011;23046;50.112;8.952;2024-03-22T00:30:48;6.43;;;4.60;;
37151;SDS011;23046;50.112;8.952;2024-03-22T00:30:58;6.57;;;4.60;;
37151;SDS011;23046;50.112;8.952;2024-03-22T00:31:08;6.00;;;4.55;;
37151;SDS011;23046;50.112;8.952;2024-03-22T00:31:19;5.83;;;4.60;;
37151;SDS011;23046;50.112;8.952;2024-03-22T00:31:29;5.27;;;4.30;;
37151;SDS011;23046;50.112;8.952;2024-03-22T00:31:39;5.10;;;4.17;;
37151;SDS011;23046;50.112;8.952;2024-03-22T00:31:50;4.57;;;4.03;;
37151;SDS011;23046;50.112;8.952;2024-03-22T00:32:00;5.40;;;4.20;;
37151;SDS011;23046;50.112;8.952;2024-03-22T00:32:10;5.80;;;4.40;;
37151;SDS011;23046;50.112;8.952;2024-03-22T00:32:20;6.25;;;4.40;;
37151;SDS011;23046;50.112;8.952;2024-03-22T00:32:31;5.90;;;4.50;;
37151;SDS011;23046;50.112;8.952;2024-03-22T00:32:41;6.50;;;4.70;;
37151;SDS011;23046;50.112;8.952;2024-03-22T00:32:54;6.53;;;4.85;;
37151;SDS011;23046;50.112;8.952;2024-03-22T00:33:04;6.33;;;4.63;;
37151;SDS011;23046;50.112;8.952;2024-03-22T00:33:14;7.18;;;4.55;;
37151;SDS011;23046;50.112;8.952;2024-03-22T00:33:24;6.87;;;4.20;;
37151;SDS011;23046;50.112;8.952;2024-03-22T00:33:35;6.87;;;4.33;;
37151;SDS011;23046;50.112;8.952;2024-03-22T00:33:45;6.20;;;4.40;;
37151;SDS011;23046;50.112;8.952;2024-03-22T00:33:55;6.33;;;4.67;;
37151;SDS011;23046;50.112;8.952;2024-03-22T00:34:05;5.80;;;4.60;;
37151;SDS011;23046;50.112;8.952;2024-03-22T00:34:15;5.87;;;4.50;;
37151;SDS011;23046;50.112;8.952;2024-03-22T00:34:26;5.87;;;4.50;;
37151;SDS011;23046;50.112;8.952;2024-03-22T00:34:36;6.27;;;4.63;;
37151;SDS011;23046;50.112;8.952;2024-03-22T00:34:46;5.95;;;4.45;;
37151;SDS011;23046;50.112;8.952;2024-03-22T00:34:57;6.03;;;4.47;;
37151;SDS011;23046;50.112;8.952;2024-03-22T00:35:07;5.60;;;4.30;;
37151;SDS011;23046;50.112;8.952;2024-03-22T00:35:17;6.47;;;4.57;;
37151;SDS011;23046;50.112;8.952;2024-03-22T00:35:27;7.18;;;4.80;;
37151;SDS011;23046;50.112;8.952;2024-03-22T00:35:38;7.30;;;5.07;;
37151;SDS011;23046;50.112;8.952;2024-03-22T00:35:48;6.83;;;5.00;;
37151;SDS011;23046;50.112;8.952;2024-03-22T00:35:58;5.93;;;4.70;;
37151;SDS011;23046;50.112;8.952;2024-03-22T00:36:08;6.13;;;4.43;;
37151;SDS011;23046;50.112;8.952;2024-03-22T00:36:18;5.72;;;4.30;;
37151;SDS011;23046;50.112;8.952;2024-03-22T00:36:29;5.53;;;4.33;;
37151;SDS011;23046;50.112;8.952;2024-03-22T00:36:39;5.40;;;4.40;;
37151;SDS011;23046;50.112;8.952;2024-03-22T00:36:49;6.33;;;4.63;;
37151;SDS011;23046;50.112;8.952;2024-03-22T00:37:01;6.50;;;4.68;;
37151;SDS011;23046;50.112;8.952;2024-03-22T00:37:11;6.13;;;4.60;;
37151;SDS011;23046;50.112;8.952;2024-03-22T00:37:21;5.60;;;4.60;;
37151;SDS011;23046;50.112;8.952;2024-03-22T00:37:32;5.68;;;4.60;;
37151;SDS011;23046;50.112;8.952;2024-03-22T00:37:42;6.43;;;4.80;;
37151;SDS011;23046;50.112;8.952;2024-03-22T00:37:52;5.90;;;4.60;;
37151;SDS011;23046;50.112;8.952;2024-03-22T00:38:02;5.73;;;4.57;;
37151;SDS011;23046;50.112;8.952;2024-03-22T00:38:12;7.57;;;4.57;;
37151;SDS011;23046;50.112;8.952;2024-03-22T00:38:23;8.20;;;4.70;;
37151;SDS011;23046;50.112;8.952;2024-03-22T00:38:33;8.50;;;4.55;;
37151;SDS011;23046;50.112;8.952;2024-03-22T00:38:43;6.13;;;4.43;;
37151;SDS011;23046;50.112;8.952;2024-03-22T00:38:53;5.20;;;4.30;;
37151;SDS011;23046;50.112;8.952;2024-03-22T00:39:03;5.20;;;4.40;;
37151;SDS011;23046;50.112;8.952;2024-03-22T00:39:14;5.13;;;4.38;;
37151;SDS011;23046;50.112;8.952;2024-03-22T00:39:24;6.07;;;4.60;;
37151;SDS011;23046;50.112;8.952;2024-03-22T00:39:34;6.03;;;4.70;;
37151;SDS011;23046;50.112;8.952;2024-03-22T00:39:45;6.25;;;4.65;;
37151;SDS011;23046;50.112;8.952;2024-03-22T00:39:55;5.90;;;4.40;;
37151;SDS011;23046;50.112;8.952;2024-03-22T00:40:06;5.53;;;4.30;;
37151;SDS011;23046;50.112;8.952;2024-03-22T00:40:16;4.97;;;4.20;;
37151;SDS011;23046;50.112;8.952;2024-03-22T00:40:27;4.82;;;4.30;;
37151;SDS011;23046;50.112;8.952;2024-03-22T00:40:38;5.53;;;4.53;;
37151;SDS011;23046;50.112;8.952;2024-03-22T00:40:48;5.68;;;4.57;;
37151;SDS011;23046;50.112;8.952;2024-03-22T00:40:58;5.73;;;4.53;;
37151;SDS011;23046;50.112;8.952;2024-03-22T00:41:08;5.47;;;4.40;;
37151;SDS011;23046;50.112;8.952;2024-03-22T00:41:19;5.30;;;4.40;;
37151;SDS011;23046;50.112;8.952;2024-03-22T00:41:29;5.07;;;4.30;;
37151;SDS011;23046;50.112;8.952;2024-03-22T00:41:39;5.20;;;4.27;;
37151;SDS011;23046;50.112;8.952;2024-03-22T00:41:49;5.53;;;4.27;;
37151;SDS011;23046;50.112;8.952;2024-03-22T00:41:59;5.83;;;4.37;;
37151;SDS011;23046;50.112;8.952;2024-03-22T00:42:10;5.13;;;4.27;;
37151;SDS011;23046;50.112;8.952;2024-03-22T00:42:20;7.38;;;4.45;;
37151;SDS011;23046;50.112;8.952;2024-03-22T00:42:30;7.87;;;4.30;;
37151;SDS011;23046;50.112;8.952;2024-03-22T00:42:40;8.17;;;4.50;;
37151;SDS011;23046;50.112;8.952;2024-03-22T00:42:51;6.23;;;4.50;;
37151;SDS011;23046;50.112;8.952;2024-03-22T00:43:01;5.97;;;4.60;;
37151;SDS011;23046;50.112;8.952;2024-03-22T00:43:11;5.97;;;4.53;;
37151;SDS011;23046;50.112;8.952;2024-03-22T00:43:21;6.37;;;4.40;;
37151;SDS011;23046;50.112;8.952;2024-03-22T00:43:32;6.90;;;4.43;;
37151;SDS011;23046;50.112;8.952;2024-03-22T00:43:42;6.70;;;4.30;;
37151;SDS011;23046;50.112;8.952;2024-03-22T00:43:52;6.10;;;4.28;;
37151;SDS011;23046;50.112;8.952;2024-03-22T00:44:02;5.60;;;4.20;;
37151;SDS011;23046;50.112;8.952;2024-03-22T00:44:12;5.77;;;4.27;;
37151;SDS011;23046;50.112;8.952;2024-03-22T00:44:22;5.93;;;4.30;;
37151;SDS011;23046;50.112;8.952;2024-03-22T00:44:33;6.17;;;4.40;;
37151;SDS011;23046;50.112;8.952;2024-03-22T00:44:43;6.50;;;4.40;;
37151;SDS011;23046;50.112;8.952;2024-03-22T00:44:53;6.43;;;4.53;;
37151;SDS011;23046;50.112;8.952;2024-03-22T00:45:05;6.05;;;4.55;;
37151;SDS011;23046;50.112;8.952;2024-03-22T00:45:15;5.30;;;4.60;;
37151;SDS011;23046;50.112;8.952;2024-03-22T00:45:25;5.40;;;4.40;;
37151;SDS011;23046;50.112;8.952;2024-03-22T00:45:36;5.60;;;4.37;;
37151;SDS011;23046;50.112;8.952;2024-03-22T00:45:46;6.83;;;4.50;;
37151;SDS011;23046;50.112;8.952;2024-03-22T00:45:56;6.47;;;4.50;;
37151;SDS011;23046;50.112;8.952;2024-03-22T00:46:08;6.32;;;4.57;;
37151;SDS011;23046;50.112;8.952;2024-03-22T00:46:18;5.43;;;4.53;;
37151;SDS011;23046;50.112;8.952;2024-03-22T00:46:28;6.37;;;4.50;;
37151;SDS011;23046;50.112;8.952;2024-03-22T00:46:38;6.83;;;4.50;;
37151;SDS011;23046;50.112;8.952;2024-03-22T00:46:49;7.10;;;4.43;;
37151;SDS011;23046;50.112;8.952;2024-03-22T00:46:59;6.03;;;4.30;;
37151;SDS011;23046;50.112;8.952;2024-03-22T00:47:09;5.72;;;4.28;;
37151;SDS011;23046;50.112;8.952;2024-03-22T00:47:19;5.23;;;4.27;;
37151;SDS011;23046;50.112;8.952;2024-03-22T00:47:30;5.70;;;4.57;;
37151;SDS011;23046;50.112;8.952;2024-03-22T00:47:40;5.23;;;4.47;;
37151;SDS011;23046;50.112;8.952;2024-03-22T00:47:50;5.67;;;4.50;;
37151;SDS011;23046;50.112;8.952;2024-03-22T00:48:00;5.75;;;4.40;;
37151;SDS011;23046;50.112;8.952;2024-03-22T00:48:10;5.87;;;4.43;;
37151;SDS011;23046;50.112;8.952;2024-03-22T00:48:20;5.70;;;4.40;;
37151;SDS011;23046;50.112;8.952;2024-03-22T00:48:31;4.87;;;4.20;;
37151;SDS011;23046;50.112;8.952;2024-03-22T00:48:41;4.80;;;4.23;;
37151;SDS011;23046;50.112;8.952;2024-03-22T00:48:51;4.67;;;4.20;;
37151;SDS011;23046;50.112;8.952;2024-03-22T00:49:01;5.15;;;4.25;;
37151;SDS011;23046;50.112;8.952;2024-03-22T00:49:11;5.17;;;4.30;;
37151;SDS011;23046;50.112;8.952;2024-03-22T00:49:22;5.27;;;4.40;;
37151;SDS011;23046;50.112;8.952;2024-03-22T00:49:32;5.35;;;4.65;;
37151;SDS011;23046;50.112;8.952;2024-03-22T00:49:42;5.50;;;4.50;;
37151;SDS011;23046;50.112;8.952;2024-03-22T00:49:53;6.10;;;4.67;;
37151;SDS011;23046;50.112;8.952;2024-03-22T00:50:03;6.03;;;4.50;;
37151;SDS011;23046;50.112;8.952;2024-03-22T00:50:14;6.43;;;4.45;;
37151;SDS011;23046;50.112;8.952;2024-03-22T00:50:24;6.13;;;4.40;;
37151;SDS011;23046;50.112;8.952;2024-03-22T00:50:35;5.27;;;4.30;;
37151;SDS011;23046;50.112;8.952;2024-03-22T00:50:45;5.40;;;4.60;;
37151;SDS011;23046;50.112;8.952;2024-03-22T00:50:55;5.33;;;4.60;;
37151;SDS011;23046;50.112;8.952;2024-03-22T00:51:05;6.30;;;4.90;;
37151;SDS011;23046;50.112;8.952;2024-03-22T00:51:15;5.57;;;4.67;;
37151;SDS011;23046;50.112;8.952;2024-03-22T00:51:26;5.63;;;4.53;;
37151;SDS011;23046;50.112;8.952;2024-03-22T00:51:36;5.27;;;4.43;;
37151;SDS011;23046;50.112;8.952;2024-03-22T00:51:46;5.67;;;4.43;;
37151;SDS011;23046;50.112;8.952;2024-03-22T00:51:57;5.50;;;4.53;;
37151;SDS011;23046;50.112;8.952;2024-03-22T00:52:07;5.70;;;4.70;;
37151;SDS011;23046;50.112;8.952;2024-03-22T00:52:18;5.73;;;4.60;;
37151;SDS011;23046;50.112;8.952;2024-03-22T00:52:28;5.90;;;4.70;;
37151;SDS011;23046;50.112;8.952;2024-03-22T00:52:39;5.63;;;4.60;;
37151;SDS011;23046;50.112;8.952;2024-03-22T00:52:52;6.30;;;4.88;;
37151;SDS011;23046;50.112;8.952;2024-03-22T00:53:04;7.07;;;4.57;;
37151;SDS011;23046;50.112;8.952;2024-03-22T00:53:15;6.75;;;4.38;;
37151;SDS011;23046;50.112;8.952;2024-03-22T00:53:26;6.32;;;4.50;;
37151;SDS011;23046;50.112;8.952;2024-03-22T00:53:37;5.60;;;4.50;;
37151;SDS011;23046;50.112;8.952;2024-03-22T00:53:47;5.70;;;4.57;;
37151;SDS011;23046;50.112;8.952;2024-03-22T00:53:57;5.37;;;4.40;;
37151;SDS011;23046;50.112;8.952;2024-03-22T00:54:07;6.00;;;4.50;;
37151;SDS011;23046;50.112;8.952;2024-03-22T00:54:17;6.67;;;4.37;;
37151;SDS011;23046;50.112;8.952;2024-03-22T00:54:27;6.83;;;4.37;;
37151;SDS011;23046;50.112;8.952;2024-03-22T00:54:38;6.00;;;4.35;;
37151;SDS011;23046;50.112;8.952;2024-03-22T00:54:49;5.88;;;4.50;;
37151;SDS011;23046;50.112;8.952;2024-03-22T00:54:59;5.63;;;4.57;;
37151;SDS011;23046;50.112;8.952;2024-03-22T00:55:09;5.63;;;4.53;;
37151;SDS011;23046;50.112;8.952;2024-03-22T00:55:20;5.20;;;4.38;;
37151;SDS011;23046;50.112;8.952;2024-03-22T00:55:30;6.13;;;4.60;;
37151;SDS011;23046;50.112;8.952;2024-03-22T00:55:40;6.33;;;4.90;;
37151;SDS011;23046;50.112;8.952;2024-03-22T00:55:50;6.73;;;4.90;;
37151;SDS011;23046;50.112;8.952;2024-03-22T00:56:01;5.40;;;4.60;;
37151;SDS011;23046;50.112;8.952;2024-03-22T00:56:11;4.73;;;4.20;;
37151;SDS011;23046;50.112;8.952;2024-03-22T00:56:21;4.47;;;4.07;;
37151;SDS011;23046;50.112;8.952;2024-03-22T00:56:32;4.78;;;4.00;;
37151;SDS011;23046;50.112;8.952;2024-03-22T00:56:42;5.63;;;4.20;;
37151;SDS011;23046;50.112;8.952;2024-03-22T00:56:52;5.97;;;4.20;;
37151;SDS011;23046;50.112;8.952;2024-03-22T00:57:02;5.07;;;4.17;;
37151;SDS011;23046;50.112;8.952;2024-03-22T00:57:12;4.67;;;4.10;;
37151;SDS011;23046;50.112;8.952;2024-03-22T00:57:23;4.93;;;4.38;;
37151;SDS011;23046;50.112;8.952;2024-03-22T00:57:33;5.63;;;4.50;;
37151;SDS011;23046;50.112;8.952;2024-03-22T00:57:43;6.60;;;4.53;;
37151;SDS011;23046;50.112;8.952;2024-03-22T00:57:53;6.87;;;4.50;;
37151;SDS011;23046;50.112;8.952;2024-03-22T00:58:03;6.80;;;4.50;;
37151;SDS011;23046;50.112;8.952;2024-03-22T00:58:14;5.82;;;4.55;;
37151;SDS011;23046;50.112;8.952;2024-03-22T00:58:25;5.80;;;4.60;;
37151;SDS011;23046;50.112;8.952;2024-03-22T00:58:36;5.88;;;4.60;;
37151;SDS011;23046;50.112;8.952;2024-03-22T00:58:46;6.47;;;4.65;;
37151;SDS011;23046;50.112;8.952;2024-03-22T00:58:56;6.63;;;4.70;;
37151;SDS011;23046;50.112;8.952;2024-03-22T00:59:06;6.03;;;4.53;;
37151;SDS011;23046;50.112;8.952;2024-03-22T00:59:16;5.67;;;4.40;;
37151;SDS011;23046;50.112;8.952;2024-03-22T00:59:28;5.35;;;4.28;;
37151;SDS011;23046;50.112;8.952;2024-03-22T00:59:38;5.70;;;4.20;;
37151;SDS011;23046;50.112;8.952;2024-03-22T00:59:48;6.73;;;4.13;;
37151;SDS011;23046;50.112;8.952;2024-03-22T00:59:58;7.30;;;4.27;;
37151;SDS011;23046;50.112;8.952;2024-03-22T01:00:09;7.43;;;4.60;;
37151;SDS011;23046;50.112;8.952;2024-03-22T01:00:19;6.38;;;4.53;;
37151;SDS011;23046;50.112;8.952;2024-03-22T01:00:30;5.37;;;4.40;;
37151;SDS011;23046;50.112;8.952;2024-03-22T01:00:40;4.97;;;4.30;;
37151;SDS011;23046;50.112;8.952;2024-03-22T01:00:50;5.03;;;4.40;;
37151;SDS011;23046;50.112;8.952;2024-03-22T01:01:00;4.80;;;4.27;;
37151;SDS011;23046;50.112;8.952;2024-03-22T01:01:10;4.87;;;4.27;;
37151;SDS011;23046;50.112;8.952;2024-03-22T01:01:21;5.13;;;4.30;;
37151;SDS011;23046;50.112;8.952;2024-03-22T01:01:31;5.75;;;4.45;;
37151;SDS011;23046;50.112;8.952;2024-03-22T01:01:44;5.97;;;4.37;;
37151;SDS011;23046;50.112;8.952;2024-03-22T01:01:54;5.53;;;4.30;;
37151;SDS011;23046;50.112;8.952;2024-03-22T01:02:04;5.43;;;4.50;;
37151;SDS011;23046;50.112;8.952;2024-03-22T01:02:15;5.33;;;4.57;;
37151;SDS011;23046;50.112;8.952;2024-03-22T01:02:25;5.90;;;4.60;;
37151;SDS011;23046;50.112;8.952;2024-03-22T01:02:35;5.88;;;4.47;;